createdAt,value
2023-02-22T00:59:01.501Z,99.90
2023-02-22T01:48:23.362Z,99.90
2023-02-22T02:15:55.369Z,99.90
2023-02-22T02:23:44.572Z,99.90
2023-02-22T03:03:02.859Z,99.90
2023-02-22T03:31:17.987Z,99.90
2023-02-22T03:59:09.316Z,99.90
2023-02-22T05:28:11.023Z,99.90
2023-02-22T08:13:39.728Z,99.90
2023-02-22T08:35:49.865Z,99.90
2023-02-22T08:38:20.108Z,99.90
2023-02-22T08:50:38.584Z,98.00
2023-02-22T08:55:37.288Z,96.50
2023-02-22T08:58:06.065Z,96.80
2023-02-22T09:00:34.133Z,94.50
2023-02-22T09:12:58.381Z,92.40
2023-02-22T09:15:26.128Z,90.70
2023-02-22T09:17:53.656Z,90.00
2023-02-22T09:20:23.011Z,88.70
2023-02-22T09:22:50.673Z,88.80
2023-02-22T09:25:20.015Z,86.70
2023-02-22T09:27:53.866Z,87.10
2023-02-22T09:30:25.719Z,87.10
2023-02-22T09:32:54.773Z,85.30
2023-02-22T09:35:27.311Z,85.20
2023-02-22T09:38:00.209Z,85.80
2023-02-22T09:40:30.505Z,86.90
2023-02-22T09:43:16.938Z,84.10
2023-02-22T09:46:05.366Z,80.90
2023-02-22T09:48:36.665Z,81.20
2023-02-22T09:51:11.903Z,82.50
2023-02-22T09:53:44.508Z,82.20
2023-02-22T09:56:14.752Z,82.60
2023-02-22T09:58:54.599Z,81.60
2023-02-22T10:01:39.256Z,81.20
2023-02-22T10:04:20.265Z,79.10
2023-02-22T10:07:12.274Z,79.40
2023-02-22T10:09:43.202Z,79.90
2023-02-22T10:15:07.408Z,77.50
2023-02-22T10:18:05.181Z,77.70
2023-02-22T10:20:56.596Z,75.70
2023-02-22T10:23:36.737Z,75.00
2023-02-22T10:28:46.581Z,75.50
2023-02-22T10:31:23.413Z,76.50
2023-02-22T10:34:05.868Z,74.70
2023-02-22T10:36:34.574Z,74.50
2023-02-22T10:39:14.084Z,77.00
2023-02-22T10:41:51.191Z,77.90
2023-02-22T10:46:47.232Z,77.60
2023-02-22T10:49:22.487Z,77.80
2023-02-22T10:52:01.576Z,77.40
2023-02-22T10:54:40.401Z,77.30
2023-02-22T10:57:08.081Z,75.70
2023-02-22T10:59:40.241Z,74.30
2023-02-22T11:04:52.794Z,73.80
2023-02-22T11:07:21.762Z,74.30
2023-02-22T11:09:59.498Z,74.60
2023-02-22T11:12:37.998Z,73.60
2023-02-22T11:15:16.870Z,73.30
2023-02-22T11:17:48.079Z,75.00
2023-02-22T11:20:27.279Z,71.70
2023-02-22T11:22:56.875Z,73.30
2023-02-22T11:25:29.441Z,73.80
2023-02-22T11:28:15.013Z,73.40
2023-02-22T11:30:44.639Z,73.70
2023-02-22T11:33:23.501Z,71.50
2023-02-22T11:35:53.360Z,71.30
2023-02-22T11:38:23.881Z,72.60
2023-02-22T11:41:30.216Z,71.10
2023-02-22T11:44:23.794Z,72.10
2023-02-22T11:46:51.666Z,72.60
2023-02-22T11:49:20.150Z,71.90
2023-02-22T11:51:53.272Z,72.30
2023-02-22T11:54:33.411Z,71.70
2023-02-22T11:57:22.294Z,72.20
2023-02-22T12:00:16.708Z,70.70
2023-02-22T12:03:02.652Z,70.90
2023-02-22T12:05:59.780Z,71.60
2023-02-22T12:08:45.174Z,71.10
2023-02-22T12:11:23.975Z,71.80
2023-02-22T12:13:56.800Z,70.20
2023-02-22T12:16:40.259Z,71.10
2023-02-22T12:19:15.844Z,70.70
2023-02-22T12:21:46.887Z,71.80
2023-02-22T12:24:24.783Z,71.60
2023-02-22T12:26:59.814Z,72.00
2023-02-22T12:29:41.651Z,71.70
2023-02-22T12:32:33.438Z,69.80
2023-02-22T12:35:19.284Z,70.00
2023-02-22T12:37:59.738Z,70.20
2023-02-22T12:40:45.239Z,70.50
2023-02-22T12:43:20.816Z,70.50
2023-02-22T12:46:21.551Z,71.60
2023-02-22T12:48:57.441Z,71.60
2023-02-22T12:51:43.003Z,71.10
2023-02-22T12:54:42.092Z,69.90
2023-02-22T13:00:03.714Z,67.30
2023-02-22T13:02:44.861Z,67.00
2023-02-22T13:05:18.040Z,69.70
2023-02-22T13:08:02.655Z,69.10
2023-02-22T13:11:01.704Z,69.80
2023-02-22T13:13:42.072Z,70.00
2023-02-22T13:16:30.801Z,70.20
2023-02-22T13:19:27.576Z,71.70
2023-02-22T13:22:05.775Z,72.00
2023-02-22T13:24:58.613Z,70.80
2023-02-22T13:27:34.456Z,71.00
2023-02-22T13:30:02.602Z,71.40
2023-02-22T13:32:54.448Z,71.90
2023-02-22T13:35:50.220Z,70.90
2023-02-22T13:38:58.651Z,71.70
2023-02-22T13:41:58.052Z,71.20
2023-02-22T13:45:00.023Z,72.00
2023-02-22T13:47:51.149Z,71.80
2023-02-22T13:50:42.999Z,71.40
2023-02-22T13:53:17.199Z,71.90
2023-02-22T13:55:51.790Z,72.00
2023-02-22T13:58:18.962Z,71.70
2023-02-22T14:00:57.361Z,71.50
2023-02-22T14:03:40.719Z,70.40
2023-02-22T14:06:10.785Z,71.40
2023-02-22T14:08:37.755Z,72.30
2023-02-22T14:11:06.706Z,72.50
2023-02-22T14:13:55.315Z,71.50
2023-02-22T14:16:29.970Z,71.80
2023-02-22T14:19:06.701Z,71.40
2023-02-22T14:21:35.260Z,72.00
2023-02-22T14:24:14.335Z,71.70
2023-02-22T14:26:53.628Z,71.70
2023-02-22T14:29:21.851Z,72.40
2023-02-22T14:31:51.617Z,69.00
2023-02-22T14:34:18.617Z,69.90
2023-02-22T14:36:58.048Z,73.00
2023-02-22T14:39:39.728Z,72.90
2023-02-22T14:42:24.210Z,72.30
2023-02-22T14:45:05.748Z,69.80
2023-02-22T14:47:40.037Z,72.30
2023-02-22T14:50:30.234Z,69.20
2023-02-22T14:55:53.427Z,71.40
2023-02-22T14:58:21.653Z,71.40
2023-02-22T15:00:53.091Z,70.30
2023-02-22T15:03:38.739Z,69.20
2023-02-22T15:06:18.348Z,69.20
2023-02-22T15:08:49.734Z,69.70
2023-02-22T15:11:26.495Z,69.60
2023-02-22T15:13:54.969Z,69.20
2023-02-22T15:16:23.696Z,70.80
2023-02-22T15:18:54.910Z,71.00
2023-02-22T15:21:26.215Z,71.20
2023-02-22T15:23:56.530Z,70.60
2023-02-22T15:26:37.618Z,69.70
2023-02-22T15:29:15.637Z,68.10
2023-02-22T15:31:48.228Z,68.10
2023-02-22T15:34:19.304Z,67.80
2023-02-22T15:36:50.947Z,68.00
2023-02-22T15:39:29.931Z,68.80
2023-02-22T15:42:21.021Z,69.50
2023-02-22T15:44:49.821Z,69.80
2023-02-22T15:47:21.147Z,71.00
2023-02-22T15:50:25.963Z,74.70
2023-02-22T15:53:03.956Z,74.90
2023-02-22T15:55:34.048Z,75.90
2023-02-22T15:58:11.670Z,76.10
2023-02-22T16:00:41.795Z,77.10
2023-02-22T16:03:12.369Z,77.90
2023-02-22T16:08:18.354Z,79.50
2023-02-22T16:10:58.110Z,79.30
2023-02-22T16:13:32.785Z,81.70
2023-02-22T16:16:24.664Z,81.80
2023-02-22T16:18:52.711Z,83.80
2023-02-22T16:21:22.336Z,83.80
2023-02-22T16:24:10.276Z,84.20
2023-02-22T16:26:42.067Z,84.80
2023-02-22T16:29:11.177Z,85.60
2023-02-22T16:31:40.692Z,86.30
2023-02-22T16:34:10.144Z,87.60
2023-02-22T16:39:22.092Z,89.70
2023-02-22T16:41:51.805Z,89.70
2023-02-22T16:44:18.974Z,89.60
2023-02-22T16:46:46.117Z,90.40
2023-02-22T16:49:15.237Z,90.80
2023-02-22T16:54:21.700Z,91.00
2023-02-22T17:01:45.177Z,92.20
2023-02-22T17:04:19.056Z,92.30
2023-02-22T17:09:16.358Z,93.00
2023-02-22T17:14:18.153Z,93.00
2023-02-22T17:16:47.297Z,93.50
2023-02-22T17:19:21.255Z,93.50
2023-02-22T17:21:49.468Z,93.50
2023-02-22T17:24:24.966Z,94.50
2023-02-22T17:31:49.742Z,95.40
2023-02-22T17:36:47.222Z,96.40
2023-02-22T17:39:14.997Z,96.40
2023-02-22T17:44:10.086Z,97.10
2023-02-22T17:49:08.790Z,97.90
2023-02-22T17:59:09.509Z,99.40
2023-02-22T18:04:09.612Z,99.30
2023-02-22T18:06:38.256Z,99.50
2023-02-22T18:14:10.258Z,99.90
2023-02-22T18:19:07.229Z,99.90
2023-02-22T18:21:35.349Z,99.90
2023-02-22T18:24:05.368Z,99.90
2023-02-22T18:26:33.450Z,99.90
2023-02-22T18:33:58.616Z,99.90
2023-02-22T18:38:55.979Z,99.90
2023-02-22T18:43:55.955Z,99.90
2023-02-22T18:54:01.161Z,99.90
2023-02-22T18:59:03.034Z,99.90
2023-02-22T19:04:01.070Z,99.90
2023-02-22T19:06:28.611Z,99.90
2023-02-22T19:13:57.939Z,99.90
2023-02-22T19:16:27.775Z,99.90
2023-02-22T19:36:33.399Z,99.90
2023-02-22T19:44:03.067Z,99.90
2023-02-22T19:51:45.572Z,99.90
2023-02-22T19:54:22.098Z,99.90
2023-02-22T19:59:24.802Z,99.90
2023-02-22T20:06:58.278Z,99.90
2023-02-22T20:09:43.958Z,99.90
2023-02-22T20:34:46.597Z,99.90
2023-02-22T20:37:15.397Z,99.90
2023-02-22T20:44:45.568Z,99.90
2023-02-22T20:49:41.764Z,99.90
2023-02-22T20:52:10.987Z,99.90
2023-02-22T20:54:39.363Z,99.90
2023-02-22T20:57:08.241Z,99.90
2023-02-22T21:04:33.878Z,99.90
2023-02-22T21:07:04.622Z,99.90
2023-02-22T21:09:34.064Z,99.90
2023-02-22T21:12:01.964Z,99.90
2023-02-22T21:14:34.154Z,99.90
2023-02-22T21:17:04.724Z,99.90
2023-02-22T21:19:34.637Z,99.90
2023-02-22T21:22:09.025Z,99.90
2023-02-22T21:27:07.390Z,99.90
2023-02-22T21:46:57.265Z,99.90
2023-02-22T21:49:25.408Z,99.90
2023-02-22T21:54:20.382Z,99.90
2023-02-22T21:56:48.124Z,99.90
2023-02-22T21:59:21.024Z,99.90
2023-02-22T22:01:51.014Z,99.90
2023-02-22T22:04:20.307Z,99.90
2023-02-22T22:06:49.698Z,99.90
2023-02-22T22:09:20.446Z,99.90
2023-02-22T22:14:18.917Z,99.90
2023-02-22T22:16:51.326Z,99.90
2023-02-22T22:24:22.810Z,99.90
2023-02-22T22:26:54.746Z,99.90
2023-02-22T22:29:28.655Z,99.90
2023-02-22T22:31:56.733Z,99.90
2023-02-22T22:36:51.716Z,99.90
2023-02-22T22:39:21.298Z,99.90
2023-02-22T22:46:53.642Z,99.90
2023-02-22T22:49:23.440Z,99.90
2023-02-22T23:04:16.586Z,99.90
2023-02-22T23:12:15.296Z,99.90
2023-02-22T23:14:44.489Z,99.90
2023-02-22T23:17:31.214Z,99.90
2023-02-22T23:24:54.948Z,99.90
2023-02-22T23:29:50.909Z,99.90
2023-02-22T23:39:51.092Z,99.90
2023-02-22T23:47:16.251Z,99.90
2023-02-22T23:57:11.508Z,99.90
